Time,TemperatureF,DewpointF,PressureIn,WindDirection,WindDirectionDegrees,WindSpeedMPH,WindSpeedGustMPH,Humidity,HourlyPrecipIn,Conditions,Clouds,dailyrainin,SoftwareType,DateUTC
2013-08-04 00:05:00,59.9,58.8,30.15,NE,38,0.0,5.0,96,0.00,,,0.04,Wunderground v.1.15,2013-08-04 05:05:00,
2013-08-04 00:10:00,59.8,58.7,30.14,NE,38,0.0,5.0,96,0.00,,,0.00,Wunderground v.1.15,2013-08-04 05:10:00,
2013-08-04 00:14:00,59.6,58.2,30.14,NE,38,0.0,5.0,95,0.00,,,0.00,Wunderground v.1.15,2013-08-04 05:14:00,
2013-08-04 00:20:00,59.5,58.1,30.14,NE,38,0.0,5.0,95,0.00,,,0.00,Wunderground v.1.15,2013-08-04 05:20:00,
2013-08-04 00:25:00,59.5,58.4,30.14,NE,38,0.0,5.0,96,0.00,,,0.00,Wunderground v.1.15,2013-08-04 05:25:00,
2013-08-04 00:30:00,59.4,58.3,30.14,NE,38,0.0,5.0,96,0.00,,,0.00,Wunderground v.1.15,2013-08-04 05:30:00,
2013-08-04 00:35:00,59.3,58.2,30.15,NE,38,0.0,5.0,96,0.00,,,0.00,Wunderground v.1.15,2013-08-04 05:35:00,
2013-08-04 00:40:00,59.1,58.0,30.15,NE,38,0.0,5.0,96,0.00,,,0.00,Wunderground v.1.15,2013-08-04 05:40:00,
2013-08-04 00:45:00,59.1,58.0,30.15,NE,38,0.0,5.0,96,0.00,,,0.00,Wunderground v.1.15,2013-08-04 05:45:00,
2013-08-04 00:49:00,59.0,57.9,30.15,NE,38,0.0,5.0,96,0.00,,,0.00,Wunderground v.1.15,2013-08-04 05:49:00,
2013-08-04 00:55:00,58.9,57.8,30.15,NE,38,0.0,5.0,96,0.00,,,0.00,Wunderground v.1.15,2013-08-04 05:55:00,
2013-08-04 01:00:00,58.9,57.8,30.16,NE,38,0.0,5.0,96,0.00,,,0.00,Wunderground v.1.15,2013-08-04 06:00:00,
2013-08-04 01:05:00,58.8,57.7,30.16,NE,38,0.0,5.0,96,0.00,,,0.00,Wunderground v.1.15,2013-08-04 06:05:00,
2013-08-04 01:10:00,58.8,57.7,30.17,NE,38,0.0,5.0,96,0.00,,,0.00,Wunderground v.1.15,2013-08-04 06:10:00,
2013-08-04 01:15:00,58.8,57.7,30.16,NE,38,0.0,5.0,96,0.00,,,0.00,Wunderground v.1.15,2013-08-04 06:15:00,
2013-08-04 01:20:00,58.7,57.6,30.16,NE,38,0.0,5.0,96,0.00,,,0.00,Wunderground v.1.15,2013-08-04 06:20:00,
2013-08-04 01:25:00,58.7,57.6,30.16,NE,38,0.0,5.0,96,0.00,,,0.00,Wunderground v.1.15,2013-08-04 06:25:00,
2013-08-04 01:30:00,58.6,57.8,30.16,NE,38,0.0,5.0,97,0.00,,,0.00,Wunderground v.1.15,2013-08-04 06:30:00,
2013-08-04 01:40:00,58.5,57.4,30.16,NE,38,0.0,5.0,96,0.00,,,0.00,Wunderground v.1.15,2013-08-04 06:40:00,
2013-08-04 01:45:00,58.3,57.2,30.16,NE,38,0.0,5.0,96,0.00,,,0.00,Wunderground v.1.15,2013-08-04 06:45:00,
2013-08-04 01:50:00,58.2,57.1,30.16,NE,38,0.0,5.0,96,0.00,,,0.00,Wunderground v.1.15,2013-08-04 06:50:00,
2013-08-04 01:55:00,58.2,57.4,30.16,NE,38,0.0,5.0,97,0.00,,,0.00,Wunderground v.1.15,2013-08-04 06:55:00,
2013-08-04 02:00:00,58.1,57.3,30.16,NE,38,0.0,5.0,97,0.00,,,0.00,Wunderground v.1.15,2013-08-04 07:00:00,
2013-08-04 02:05:00,57.9,56.8,30.16,NE,38,0.0,5.0,96,0.00,,,0.00,Wunderground v.1.15,2013-08-04 07:05:00,
2013-08-04 02:15:00,57.8,57.0,30.16,NE,38,0.0,5.0,97,0.00,,,0.00,Wunderground v.1.15,2013-08-04 07:15:00,
2013-08-04 02:20:00,57.8,57.0,30.16,NE,38,0.0,5.0,97,0.00,,,0.00,Wunderground v.1.15,2013-08-04 07:20:00,
2013-08-04 02:25:00,57.7,56.9,30.16,NE,38,0.0,5.0,97,0.00,,,0.00,Wunderground v.1.15,2013-08-04 07:25:00,
2013-08-04 02:30:00,57.5,56.7,30.16,NE,38,0.0,5.0,97,0.00,,,0.00,Wunderground v.1.15,2013-08-04 07:30:00,
2013-08-04 02:35:00,57.5,56.7,30.16,NE,38,0.0,5.0,97,0.00,,,0.00,Wunderground v.1.15,2013-08-04 07:35:00,
2013-08-04 02:45:00,57.5,56.7,30.16,NE,38,0.0,5.0,97,0.00,,,0.00,Wunderground v.1.15,2013-08-04 07:45:00,
2013-08-04 02:50:00,57.4,56.6,30.16,NE,38,0.0,5.0,97,0.00,,,0.00,Wunderground v.1.15,2013-08-04 07:50:00,
2013-08-04 02:55:00,57.3,56.5,30.16,NE,38,0.0,5.0,97,0.00,,,0.00,Wunderground v.1.15,2013-08-04 07:55:00,
2013-08-04 03:00:00,57.2,56.4,30.16,NE,38,0.0,5.0,97,0.00,,,0.00,Wunderground v.1.15,2013-08-04 08:00:00,
2013-08-04 03:05:00,57.2,56.4,30.16,NE,38,0.0,5.0,97,0.00,,,0.00,Wunderground v.1.15,2013-08-04 08:05:00,
2013-08-04 03:10:00,57.1,56.3,30.16,NE,38,0.0,5.0,97,0.00,,,0.00,Wunderground v.1.15,2013-08-04 08:10:00,
2013-08-04 03:19:00,56.9,56.1,30.15,NE,38,0.0,5.0,97,0.00,,,0.00,Wunderground v.1.15,2013-08-04 08:19:00,
2013-08-04 03:25:00,56.8,56.0,30.15,NE,38,0.0,5.0,97,0.00,,,0.00,Wunderground v.1.15,2013-08-04 08:25:00,
2013-08-04 03:30:00,56.7,55.9,30.15,NE,38,0.0,5.0,97,0.00,,,0.00,Wunderground v.1.15,2013-08-04 08:30:00,
2013-08-04 03:35:00,56.6,55.8,30.15,NE,38,0.0,5.0,97,0.00,,,0.00,Wunderground v.1.15,2013-08-04 08:35:00,
2013-08-04 03:39:00,56.6,55.8,30.15,NE,38,0.0,5.0,97,0.00,,,0.00,Wunderground v.1.15,2013-08-04 08:39:00,
2013-08-04 03:45:00,56.5,55.7,30.15,NE,38,0.0,5.0,97,0.00,,,0.00,Wunderground v.1.15,2013-08-04 08:45:00,
2013-08-04 03:50:00,56.4,55.6,30.15,NE,38,0.0,5.0,97,0.00,,,0.00,Wunderground v.1.15,2013-08-04 08:50:00,
2013-08-04 03:55:00,56.3,55.5,30.15,NE,38,0.0,5.0,97,0.00,,,0.00,Wunderground v.1.15,2013-08-04 08:55:00,
2013-08-04 04:00:00,56.2,55.4,30.15,NE,38,0.0,5.0,97,0.00,,,0.00,Wunderground v.1.15,2013-08-04 09:00:00,
2013-08-04 04:05:00,56.1,55.3,30.15,NE,38,0.0,5.0,97,0.00,,,0.00,Wunderground v.1.15,2013-08-04 09:05:00,
2013-08-04 04:10:00,56.2,55.4,30.15,NE,38,0.0,5.0,97,0.00,,,0.00,Wunderground v.1.15,2013-08-04 09:10:00,
2013-08-04 04:20:00,56.0,55.2,30.15,NE,38,0.0,5.0,97,0.00,,,0.00,Wunderground v.1.15,2013-08-04 09:20:00,
2013-08-04 04:25:00,56.0,55.2,30.15,NE,38,0.0,5.0,97,0.00,,,0.00,Wunderground v.1.15,2013-08-04 09:25:00,
2013-08-04 04:30:00,56.0,55.2,30.15,NE,38,0.0,5.0,97,0.00,,,0.00,Wunderground v.1.15,2013-08-04 09:30:00,
2013-08-04 04:35:00,56.0,55.2,30.15,NE,38,0.0,5.0,97,0.00,,,0.00,Wunderground v.1.15,2013-08-04 09:35:00,
2013-08-04 04:40:00,56.0,55.2,30.16,NE,38,0.0,5.0,97,0.00,,,0.00,Wunderground v.1.15,2013-08-04 09:40:00,
2013-08-04 04:45:00,56.0,55.2,30.16,NE,38,0.0,5.0,97,0.00,,,0.00,Wunderground v.1.15,2013-08-04 09:45:00,
2013-08-04 04:55:00,55.8,55.0,30.16,NE,38,0.0,5.0,97,0.00,,,0.00,Wunderground v.1.15,2013-08-04 09:55:00,
2013-08-04 05:00:00,55.7,54.9,30.17,NE,38,0.0,5.0,97,0.00,,,0.00,Wunderground v.1.15,2013-08-04 10:00:00,
2013-08-04 05:05:00,55.7,54.9,30.16,NE,38,0.0,5.0,97,0.00,,,0.00,Wunderground v.1.15,2013-08-04 10:05:00,
2013-08-04 05:10:00,55.6,54.8,30.16,NE,38,0.0,5.0,97,0.00,,,0.00,Wunderground v.1.15,2013-08-04 10:10:00,
2013-08-04 05:15:00,55.6,54.8,30.17,NE,38,0.0,5.0,97,0.00,,,0.00,Wunderground v.1.15,2013-08-04 10:15:00,
2013-08-04 05:25:00,55.5,54.7,30.16,NE,38,0.0,5.0,97,0.00,,,0.00,Wunderground v.1.15,2013-08-04 10:25:00,
2013-08-04 05:30:00,55.4,54.6,30.17,NE,38,0.0,5.0,97,0.00,,,0.00,Wunderground v.1.15,2013-08-04 10:30:00,
2013-08-04 05:35:00,55.4,54.6,30.17,NE,38,0.0,5.0,97,0.00,,,0.00,Wunderground v.1.15,2013-08-04 10:35:00,
2013-08-04 05:40:00,55.4,54.6,30.17,NE,38,0.0,5.0,97,0.00,,,0.00,Wunderground v.1.15,2013-08-04 10:40:00,
2013-08-04 05:45:00,55.3,54.5,30.17,NE,38,0.0,5.0,97,0.00,,,0.00,Wunderground v.1.15,2013-08-04 10:45:00,
2013-08-04 05:50:00,55.2,54.4,30.18,NE,38,0.0,5.0,97,0.00,,,0.00,Wunderground v.1.15,2013-08-04 10:50:00,
2013-08-04 05:59:00,55.1,54.3,30.19,NE,38,0.0,5.0,97,0.00,,,0.00,Wunderground v.1.15,2013-08-04 10:59:00,
2013-08-04 06:05:00,55.0,54.2,30.19,NE,38,0.0,5.0,97,0.00,,,0.00,Wunderground v.1.15,2013-08-04 11:05:00,
2013-08-04 06:10:00,55.0,54.2,30.18,NE,38,0.0,5.0,97,0.00,,,0.00,Wunderground v.1.15,2013-08-04 11:10:00,
2013-08-04 06:15:00,55.0,54.2,30.19,NE,38,0.0,5.0,97,0.00,,,0.00,Wunderground v.1.15,2013-08-04 11:15:00,
2013-08-04 06:20:00,55.0,54.2,30.19,NE,38,0.0,5.0,97,0.00,,,0.00,Wunderground v.1.15,2013-08-04 11:20:00,
2013-08-04 06:29:00,55.0,54.4,30.19,NE,38,0.0,5.0,98,0.00,,,0.00,Wunderground v.1.15,2013-08-04 11:29:00,
2013-08-04 06:35:00,55.1,54.5,30.20,NE,38,0.0,5.0,98,0.00,,,0.00,Wunderground v.1.15,2013-08-04 11:35:00,
2013-08-04 06:39:00,55.2,54.6,30.20,NE,38,0.0,5.0,98,0.00,,,0.00,Wunderground v.1.15,2013-08-04 11:39:00,
2013-08-04 06:44:00,55.4,54.8,30.20,NE,38,0.0,5.0,98,0.00,,,0.00,Wunderground v.1.15,2013-08-04 11:44:00,
2013-08-04 06:50:00,55.6,55.0,30.20,NE,38,0.0,5.0,98,0.00,,,0.00,Wunderground v.1.15,2013-08-04 11:50:00,
2013-08-04 06:55:00,55.8,55.2,30.20,NE,38,0.0,5.0,98,0.00,,,0.00,Wunderground v.1.15,2013-08-04 11:55:00,
2013-08-04 07:05:00,56.5,55.9,30.19,NE,38,0.0,5.0,98,0.00,,,0.00,Wunderground v.1.15,2013-08-04 12:05:00,
2013-08-04 07:15:00,57.5,57.2,30.19,NE,38,0.0,5.0,99,0.00,,,0.00,Wunderground v.1.15,2013-08-04 12:15:00,
2013-08-04 07:20:00,58.0,57.7,30.19,NE,38,0.0,5.0,99,0.00,,,0.00,Wunderground v.1.15,2013-08-04 12:20:00,
2013-08-04 07:24:00,58.5,58.2,30.19,NE,38,0.0,5.0,99,0.00,,,0.00,Wunderground v.1.15,2013-08-04 12:24:00,
2013-08-04 07:35:00,59.7,59.4,30.19,NE,38,0.0,5.0,99,0.00,,,0.00,Wunderground v.1.15,2013-08-04 12:35:00,
2013-08-04 07:39:00,60.3,60.0,30.19,NE,38,0.0,5.0,99,0.00,,,0.00,Wunderground v.1.15,2013-08-04 12:39:00,
2013-08-04 07:45:00,60.9,60.6,30.19,NE,38,0.0,5.0,99,0.00,,,0.00,Wunderground v.1.15,2013-08-04 12:45:00,
2013-08-04 07:50:00,61.3,61.0,30.19,NE,38,0.0,5.0,99,0.00,,,0.00,Wunderground v.1.15,2013-08-04 12:50:00,
2013-08-04 07:54:00,61.7,61.4,30.19,NE,38,0.0,5.0,99,0.00,,,0.00,Wunderground v.1.15,2013-08-04 12:54:00,
2013-08-04 08:00:00,62.4,62.1,30.20,NE,38,0.0,5.0,99,0.00,,,0.00,Wunderground v.1.15,2013-08-04 13:00:00,
2013-08-04 08:05:00,62.4,62.1,30.20,NE,38,1.0,5.0,99,0.00,,,0.00,Wunderground v.1.15,2013-08-04 13:05:00,
2013-08-04 08:10:00,62.7,62.1,30.20,NE,38,1.0,1.0,98,0.00,,,0.00,Wunderground v.1.15,2013-08-04 13:10:00,
2013-08-04 08:15:00,63.2,62.3,30.20,NE,38,0.0,5.0,97,0.00,,,0.00,Wunderground v.1.15,2013-08-04 13:15:00,
2013-08-04 08:20:00,63.9,62.7,30.20,NE,51,1.0,5.0,96,0.00,,,0.00,Wunderground v.1.15,2013-08-04 13:20:00,
2013-08-04 08:25:00,64.2,62.1,30.20,NE,42,1.0,5.0,93,0.00,,,0.00,Wunderground v.1.15,2013-08-04 13:25:00,
2013-08-04 08:30:00,64.6,61.9,30.20,NE,40,1.0,1.0,91,0.00,,,0.00,Wunderground v.1.15,2013-08-04 13:30:00,
2013-08-04 08:40:00,65.8,62.5,30.20,NE,41,0.0,5.0,89,0.00,,,0.00,Wunderground v.1.15,2013-08-04 13:40:00,
2013-08-04 08:45:00,66.5,62.8,30.20,NE,41,0.0,5.0,88,0.00,,,0.00,Wunderground v.1.15,2013-08-04 13:45:00,
2013-08-04 08:50:00,67.2,62.9,30.20,NE,41,0.0,5.0,86,0.00,,,0.00,Wunderground v.1.15,2013-08-04 13:50:00,
2013-08-04 08:55:00,67.9,62.9,30.20,NE,41,0.0,5.0,84,0.00,,,0.00,Wunderground v.1.15,2013-08-04 13:55:00,
2013-08-04 09:00:00,68.5,63.5,30.20,NE,41,0.0,5.0,84,0.00,,,0.00,Wunderground v.1.15,2013-08-04 14:00:00,
2013-08-04 09:10:00,69.5,62.7,30.20,NE,42,1.0,5.0,79,0.00,,,0.00,Wunderground v.1.15,2013-08-04 14:10:00,
2013-08-04 09:15:00,69.8,61.9,30.20,NE,40,2.0,5.0,76,0.00,,,0.00,Wunderground v.1.15,2013-08-04 14:15:00,
2013-08-04 09:20:00,70.2,63.0,30.20,NE,40,1.0,5.0,78,0.00,,,0.00,Wunderground v.1.15,2013-08-04 14:20:00,
2013-08-04 09:25:00,70.3,62.0,30.20,NNE,27,2.0,5.0,75,0.00,,,0.00,Wunderground v.1.15,2013-08-04 14:25:00,
2013-08-04 09:30:00,70.7,63.9,30.20,NNE,27,2.0,2.0,79,0.00,,,0.00,Wunderground v.1.15,2013-08-04 14:30:00,
2013-08-04 09:40:00,71.8,63.1,30.20,NE,34,0.0,5.0,74,0.00,,,0.00,Wunderground v.1.15,2013-08-04 14:40:00,
2013-08-04 09:44:00,72.2,62.7,30.20,NE,34,0.0,5.0,72,0.00,,,0.00,Wunderground v.1.15,2013-08-04 14:44:00,
2013-08-04 09:50:00,72.6,62.7,30.20,NE,34,0.0,5.0,71,0.00,,,0.00,Wunderground v.1.15,2013-08-04 14:50:00,
2013-08-04 09:55:00,73.0,63.0,30.20,NE,34,0.0,5.0,71,0.00,,,0.00,Wunderground v.1.15,2013-08-04 14:55:00,
2013-08-04 10:00:00,73.4,63.4,30.20,NE,36,0.0,5.0,71,0.00,,,0.00,Wunderground v.1.15,2013-08-04 15:00:00,
2013-08-04 10:04:00,73.8,62.6,30.20,NE,36,1.0,5.0,68,0.00,,,0.00,Wunderground v.1.15,2013-08-04 15:04:00,
2013-08-04 10:10:00,74.0,63.2,30.20,NE,36,1.0,1.0,69,0.00,,,0.00,Wunderground v.1.15,2013-08-04 15:10:00,
2013-08-04 10:15:00,74.2,62.5,30.20,NE,36,0.0,5.0,67,0.00,,,0.00,Wunderground v.1.15,2013-08-04 15:15:00,
2013-08-04 10:20:00,74.4,62.7,30.20,NE,36,0.0,5.0,67,0.00,,,0.00,Wunderground v.1.15,2013-08-04 15:20:00,
2013-08-04 10:25:00,74.7,62.1,30.20,NE,36,1.0,5.0,65,0.00,,,0.00,Wunderground v.1.15,2013-08-04 15:25:00,
2013-08-04 10:30:00,75.1,63.4,30.20,NE,36,0.0,5.0,67,0.00,,,0.00,Wunderground v.1.15,2013-08-04 15:30:00,
2013-08-04 10:35:00,75.4,60.5,30.20,NE,38,1.0,5.0,60,0.00,,,0.00,Wunderground v.1.15,2013-08-04 15:35:00,
2013-08-04 10:45:00,76.0,62.0,30.20,East,84,1.0,5.0,62,0.00,,,0.00,Wunderground v.1.15,2013-08-04 15:45:00,
2013-08-04 10:50:00,76.5,62.5,30.20,East,84,0.0,5.0,62,0.00,,,0.00,Wunderground v.1.15,2013-08-04 15:50:00,
2013-08-04 10:55:00,76.9,62.9,30.20,East,81,0.0,5.0,62,0.00,,,0.00,Wunderground v.1.15,2013-08-04 15:55:00,
2013-08-04 11:00:00,77.0,62.5,30.21,ENE,68,0.0,5.0,61,0.00,,,0.00,Wunderground v.1.15,2013-08-04 16:00:00,
2013-08-04 11:05:00,77.3,62.3,30.20,NE,50,1.0,5.0,60,0.00,,,0.00,Wunderground v.1.15,2013-08-04 16:05:00,
2013-08-04 11:10:00,77.3,62.3,30.20,NE,53,1.0,1.0,60,0.00,,,0.00,Wunderground v.1.15,2013-08-04 16:10:00,
2013-08-04 11:20:00,77.3,59.4,30.21,NNE,14,2.0,2.0,54,0.00,,,0.00,Wunderground v.1.15,2013-08-04 16:20:00,
2013-08-04 11:25:00,77.3,62.3,30.21,NNE,17,2.0,5.0,60,0.00,,,0.00,Wunderground v.1.15,2013-08-04 16:25:00,
2013-08-04 11:30:00,77.4,61.0,30.21,NNE,17,1.0,1.0,57,0.00,,,0.00,Wunderground v.1.15,2013-08-04 16:30:00,
2013-08-04 11:35:00,77.6,59.1,30.21,NNE,23,0.0,5.0,53,0.00,,,0.00,Wunderground v.1.15,2013-08-04 16:35:00,
2013-08-04 11:40:00,77.6,60.2,30.21,ENE,65,1.0,5.0,55,0.00,,,0.00,Wunderground v.1.15,2013-08-04 16:40:00,
2013-08-04 11:50:00,77.9,59.9,30.20,ENE,64,0.0,5.0,54,0.00,,,0.00,Wunderground v.1.15,2013-08-04 16:50:00,
2013-08-04 11:54:00,78.1,58.5,30.20,NNE,26,1.0,5.0,51,0.00,,,0.00,Wunderground v.1.15,2013-08-04 16:54:00,
2013-08-04 11:59:00,78.2,58.0,30.20,NE,48,2.0,2.0,50,0.00,,,0.00,Wunderground v.1.15,2013-08-04 16:59:00,
2013-08-04 12:04:00,78.5,58.9,30.20,NNE,16,1.0,5.0,51,0.00,,,0.00,Wunderground v.1.15,2013-08-04 17:04:00,
2013-08-04 12:10:00,78.8,57.4,30.20,NNE,18,2.0,2.0,48,0.00,,,0.00,Wunderground v.1.15,2013-08-04 17:10:00,
2013-08-04 12:15:00,79.0,58.8,30.20,NNE,17,1.0,5.0,50,0.00,,,0.00,Wunderground v.1.15,2013-08-04 17:15:00,
2013-08-04 12:25:00,79.4,59.7,30.21,ENE,62,1.0,5.0,51,0.00,,,0.00,Wunderground v.1.15,2013-08-04 17:25:00,
2013-08-04 12:30:00,79.4,59.7,30.20,ENE,62,1.0,1.0,51,0.00,,,0.00,Wunderground v.1.15,2013-08-04 17:30:00,
2013-08-04 12:35:00,79.5,58.7,30.20,ENE,65,1.0,5.0,49,0.00,,,0.00,Wunderground v.1.15,2013-08-04 17:35:00,
2013-08-04 12:40:00,79.5,59.8,30.20,NNE,21,2.0,5.0,51,0.00,,,0.00,Wunderground v.1.15,2013-08-04 17:40:00,
2013-08-04 12:45:00,79.5,61.4,30.19,North,360,2.0,5.0,54,0.00,,,0.00,Wunderground v.1.15,2013-08-04 17:45:00,
2013-08-04 12:50:00,79.6,59.3,30.20,NNW,339,1.0,5.0,50,0.00,,,0.00,Wunderground v.1.15,2013-08-04 17:50:00,
2013-08-04 12:55:00,79.4,58.6,30.19,NW,325,1.0,5.0,49,0.00,,,0.00,Wunderground v.1.15,2013-08-04 17:55:00,
2013-08-04 13:00:00,79.4,58.6,30.19,North,11,1.0,1.0,49,0.00,,,0.00,Wunderground v.1.15,2013-08-04 18:00:00,
2013-08-04 13:05:00,79.5,60.3,30.18,ENE,64,1.0,2.0,52,0.00,,,0.00,Wunderground v.1.15,2013-08-04 18:05:00,
2013-08-04 13:10:00,79.5,59.2,30.18,NE,45,1.0,5.0,50,0.00,,,0.00,Wunderground v.1.15,2013-08-04 18:10:00,
2013-08-04 13:15:00,79.4,58.0,30.18,NNE,17,2.0,5.0,48,0.00,,,0.00,Wunderground v.1.15,2013-08-04 18:15:00,
2013-08-04 13:25:00,79.3,57.9,30.18,NE,34,2.0,2.0,48,0.00,,,0.00,Wunderground v.1.15,2013-08-04 18:25:00,
2013-08-04 13:30:00,79.1,56.5,30.18,NE,34,2.0,2.0,46,0.00,,,0.00,Wunderground v.1.15,2013-08-04 18:30:00,
2013-08-04 13:35:00,79.2,59.0,30.18,NNE,30,1.0,5.0,50,0.00,,,0.00,Wunderground v.1.15,2013-08-04 18:35:00,
2013-08-04 13:40:00,79.4,59.1,30.18,NNE,33,1.0,5.0,50,0.00,,,0.00,Wunderground v.1.15,2013-08-04 18:40:00,
2013-08-04 13:45:00,79.6,61.5,30.18,NE,38,1.0,6.0,54,0.00,,,0.00,Wunderground v.1.15,2013-08-04 18:45:00,
2013-08-04 13:50:00,79.7,58.8,30.17,NE,39,2.0,2.0,49,0.00,,,0.00,Wunderground v.1.15,2013-08-04 18:50:00,
2013-08-04 14:00:00,80.1,59.8,30.17,South,173,1.0,1.0,50,0.00,,,0.00,Wunderground v.1.15,2013-08-04 19:00:00,
2013-08-04 14:05:00,80.2,59.3,30.17,South,173,1.0,5.0,49,0.00,,,0.00,Wunderground v.1.15,2013-08-04 19:05:00,
2013-08-04 14:10:00,80.4,60.1,30.17,NNW,329,1.0,5.0,50,0.00,,,0.00,Wunderground v.1.15,2013-08-04 19:10:00,
2013-08-04 14:15:00,79.5,58.1,30.17,NNE,22,2.0,5.0,48,0.00,,,0.00,Wunderground v.1.15,2013-08-04 19:15:00,
2013-08-04 14:20:00,78.2,59.1,30.17,NNE,19,2.0,2.0,52,0.00,,,0.00,Wunderground v.1.15,2013-08-04 19:20:00,
2013-08-04 14:30:00,77.6,63.1,30.17,NNE,19,0.0,5.0,61,0.00,,,0.00,Wunderground v.1.15,2013-08-04 19:30:00,
2013-08-04 14:35:00,78.1,60.6,30.17,NNE,22,0.0,5.0,55,0.00,,,0.00,Wunderground v.1.15,2013-08-04 19:35:00,
2013-08-04 14:40:00,78.8,61.3,30.17,NNE,22,1.0,1.0,55,0.00,,,0.00,Wunderground v.1.15,2013-08-04 19:40:00,
2013-08-04 14:45:00,79.2,60.1,30.17,NNE,29,2.0,6.0,52,0.00,,,0.00,Wunderground v.1.15,2013-08-04 19:45:00,
2013-08-04 14:50:00,79.1,59.4,30.17,NNE,26,2.0,2.0,51,0.00,,,0.00,Wunderground v.1.15,2013-08-04 19:50:00,
2013-08-04 14:55:00,78.5,61.5,30.16,NNE,30,2.0,5.0,56,0.00,,,0.00,Wunderground v.1.15,2013-08-04 19:55:00,
2013-08-04 15:05:00,77.2,62.7,30.16,NNE,30,0.0,5.0,61,0.00,,,0.00,Wunderground v.1.15,2013-08-04 20:05:00,
2013-08-04 15:10:00,76.4,59.0,30.16,NNE,30,0.0,5.0,55,0.00,,,0.00,Wunderground v.1.15,2013-08-04 20:10:00,
2013-08-04 15:15:00,76.7,60.8,30.15,NNE,30,0.0,5.0,58,0.00,,,0.00,Wunderground v.1.15,2013-08-04 20:15:00,
2013-08-04 15:20:00,77.5,61.6,30.15,NNE,30,0.0,5.0,58,0.00,,,0.00,Wunderground v.1.15,2013-08-04 20:20:00,
2013-08-04 15:25:00,78.6,61.1,30.15,NNE,13,1.0,5.0,55,0.00,,,0.00,Wunderground v.1.15,2013-08-04 20:25:00,
2013-08-04 15:35:00,79.6,59.3,30.15,East,99,0.0,5.0,50,0.00,,,0.00,Wunderground v.1.15,2013-08-04 20:35:00,
2013-08-04 15:40:00,79.8,60.6,30.16,East,98,0.0,5.0,52,0.00,,,0.00,Wunderground v.1.15,2013-08-04 20:40:00,
2013-08-04 15:45:00,80.1,60.9,30.16,East,96,0.0,5.0,52,0.00,,,0.00,Wunderground v.1.15,2013-08-04 20:45:00,
2013-08-04 15:50:00,80.3,61.1,30.16,East,96,0.0,5.0,52,0.00,,,0.00,Wunderground v.1.15,2013-08-04 20:50:00,
2013-08-04 15:54:00,80.2,63.6,30.15,East,93,0.0,5.0,57,0.00,,,0.00,Wunderground v.1.15,2013-08-04 20:54:00,
2013-08-04 16:00:00,80.3,60.5,30.15,NE,54,0.0,5.0,51,0.00,,,0.00,Wunderground v.1.15,2013-08-04 21:00:00,
2013-08-04 16:10:00,80.3,60.0,30.15,NNE,26,2.0,2.0,50,0.00,,,0.00,Wunderground v.1.15,2013-08-04 21:10:00,
2013-08-04 16:14:00,80.3,60.0,30.15,NNE,28,1.0,3.0,50,0.00,,,0.00,Wunderground v.1.15,2013-08-04 21:14:00,
2013-08-04 16:20:00,80.1,60.3,30.16,NNE,17,2.0,5.0,51,0.00,,,0.00,Wunderground v.1.15,2013-08-04 21:20:00,
2013-08-04 16:25:00,79.8,60.1,30.15,NNE,18,2.0,5.0,51,0.00,,,0.00,Wunderground v.1.15,2013-08-04 21:25:00,
2013-08-04 16:29:00,79.8,59.5,30.15,NNE,21,1.0,1.0,50,0.00,,,0.00,Wunderground v.1.15,2013-08-04 21:29:00,
2013-08-04 16:40:00,79.7,59.4,30.15,NNE,23,0.0,5.0,50,0.00,,,0.00,Wunderground v.1.15,2013-08-04 21:40:00,
2013-08-04 16:45:00,80.0,60.2,30.15,NNE,23,0.0,5.0,51,0.00,,,0.00,Wunderground v.1.15,2013-08-04 21:45:00,
2013-08-04 16:50:00,80.3,60.5,30.15,NNE,22,0.0,5.0,51,0.00,,,0.00,Wunderground v.1.15,2013-08-04 21:50:00,
2013-08-04 16:55:00,80.2,60.4,30.15,NNE,22,1.0,5.0,51,0.00,,,0.00,Wunderground v.1.15,2013-08-04 21:55:00,
2013-08-04 16:59:00,80.1,58.6,30.15,NNE,22,1.0,1.0,48,0.00,,,0.00,Wunderground v.1.15,2013-08-04 21:59:00,
2013-08-04 17:05:00,80.2,61.0,30.15,NNE,22,0.0,3.0,52,0.00,,,0.00,Wunderground v.1.15,2013-08-04 22:05:00,
2013-08-04 17:10:00,80.1,60.3,30.15,NNE,23,1.0,5.0,51,0.00,,,0.00,Wunderground v.1.15,2013-08-04 22:10:00,
2013-08-04 17:15:00,79.8,60.1,30.15,NNE,26,1.0,5.0,51,0.00,,,0.00,Wunderground v.1.15,2013-08-04 22:15:00,
2013-08-04 17:20:00,79.7,58.8,30.15,NNE,26,1.0,1.0,49,0.00,,,0.00,Wunderground v.1.15,2013-08-04 22:20:00,
2013-08-04 17:25:00,79.5,58.7,30.15,NNE,26,1.0,5.0,49,0.00,,,0.00,Wunderground v.1.15,2013-08-04 22:25:00,
2013-08-04 17:30:00,79.3,59.6,30.14,NNE,26,0.0,5.0,51,0.00,,,0.00,Wunderground v.1.15,2013-08-04 22:30:00,
2013-08-04 17:35:00,78.9,57.5,30.14,NNE,26,1.0,5.0,48,0.00,,,0.00,Wunderground v.1.15,2013-08-04 22:35:00,
2013-08-04 17:45:00,78.4,58.2,30.13,NNE,25,1.0,5.0,50,0.00,,,0.00,Wunderground v.1.15,2013-08-04 22:45:00,
2013-08-04 17:50:00,78.3,61.3,30.13,NNE,25,1.0,1.0,56,0.00,,,0.00,Wunderground v.1.15,2013-08-04 22:50:00,
2013-08-04 17:55:00,78.2,60.2,30.13,East,95,0.0,5.0,54,0.00,,,0.00,Wunderground v.1.15,2013-08-04 22:55:00,
2013-08-04 18:00:00,78.3,58.7,30.13,East,92,0.0,5.0,51,0.00,,,0.00,Wunderground v.1.15,2013-08-04 23:00:00,
2013-08-04 18:05:00,78.2,59.1,30.13,East,92,0.0,5.0,52,0.00,,,0.00,Wunderground v.1.15,2013-08-04 23:05:00,
2013-08-04 18:14:00,78.5,61.0,30.13,East,92,0.0,5.0,55,0.00,,,0.00,Wunderground v.1.15,2013-08-04 23:14:00,
2013-08-04 18:20:00,78.4,61.9,30.13,East,92,0.0,5.0,57,0.00,,,0.00,Wunderground v.1.15,2013-08-04 23:20:00,
2013-08-04 18:24:00,78.2,61.7,30.13,East,89,0.0,5.0,57,0.00,,,0.00,Wunderground v.1.15,2013-08-04 23:24:00,
2013-08-04 18:30:00,77.5,63.0,30.13,East,89,0.0,5.0,61,0.00,,,0.00,Wunderground v.1.15,2013-08-04 23:30:00,
2013-08-04 18:35:00,76.7,62.7,30.13,East,89,0.0,5.0,62,0.00,,,0.00,Wunderground v.1.15,2013-08-04 23:35:00,
2013-08-04 18:40:00,75.9,63.3,30.13,East,89,0.0,5.0,65,0.00,,,0.00,Wunderground v.1.15,2013-08-04 23:40:00,
2013-08-04 18:50:00,75.8,62.8,30.13,East,89,0.0,5.0,64,0.00,,,0.00,Wunderground v.1.15,2013-08-04 23:50:00,
2013-08-04 18:55:00,75.7,61.8,30.13,East,89,0.0,5.0,62,0.00,,,0.00,Wunderground v.1.15,2013-08-04 23:55:00,
2013-08-04 18:59:00,75.8,61.8,30.12,East,89,0.0,5.0,62,0.00,,,0.00,Wunderground v.1.15,2013-08-04 23:59:00,
2013-08-04 19:05:00,75.9,62.4,30.13,East,89,0.0,5.0,63,0.00,,,0.00,Wunderground v.1.15,2013-08-05 00:05:00,
2013-08-04 19:10:00,75.4,61.9,30.13,East,89,0.0,5.0,63,0.00,,,0.00,Wunderground v.1.15,2013-08-05 00:10:00,
2013-08-04 19:15:00,74.7,62.1,30.13,East,89,0.0,5.0,65,0.00,,,0.00,Wunderground v.1.15,2013-08-05 00:15:00,
2013-08-04 19:20:00,74.2,61.7,30.12,East,89,0.0,5.0,65,0.00,,,0.00,Wunderground v.1.15,2013-08-05 00:20:00,
2013-08-04 19:25:00,73.8,61.7,30.13,East,89,0.0,5.0,66,0.00,,,0.00,Wunderground v.1.15,2013-08-05 00:25:00,
2013-08-04 19:30:00,73.3,61.3,30.12,East,89,0.0,5.0,66,0.00,,,0.00,Wunderground v.1.15,2013-08-05 00:30:00,
2013-08-04 19:35:00,72.8,61.6,30.12,East,89,0.0,5.0,68,0.00,,,0.00,Wunderground v.1.15,2013-08-05 00:35:00,
2013-08-04 19:40:00,72.1,61.4,30.12,East,89,0.0,5.0,69,0.00,,,0.00,Wunderground v.1.15,2013-08-05 00:40:00,
2013-08-04 19:50:00,70.8,60.9,30.12,East,89,0.0,5.0,71,0.00,,,0.00,Wunderground v.1.15,2013-08-05 00:50:00,
2013-08-04 19:55:00,70.2,61.1,30.12,East,89,0.0,5.0,73,0.00,,,0.00,Wunderground v.1.15,2013-08-05 00:55:00,
2013-08-04 20:00:00,69.6,61.3,30.12,East,89,0.0,5.0,75,0.00,,,0.00,Wunderground v.1.15,2013-08-05 01:00:00,
2013-08-04 20:05:00,69.1,61.2,30.12,East,89,0.0,5.0,76,0.00,,,0.00,Wunderground v.1.15,2013-08-05 01:05:00,
2013-08-04 20:10:00,68.6,61.5,30.13,East,89,0.0,5.0,78,0.00,,,0.00,Wunderground v.1.15,2013-08-05 01:10:00,
2013-08-04 20:15:00,68.2,61.8,30.13,East,89,0.0,5.0,80,0.00,,,0.00,Wunderground v.1.15,2013-08-05 01:15:00,
2013-08-04 20:25:00,67.3,62.3,30.12,East,89,0.0,5.0,84,0.00,,,0.00,Wunderground v.1.15,2013-08-05 01:25:00,
2013-08-04 20:30:00,67.0,62.0,30.12,East,89,0.0,5.0,84,0.00,,,0.00,Wunderground v.1.15,2013-08-05 01:30:00,
2013-08-04 20:40:00,66.1,61.8,30.13,East,89,0.0,5.0,86,0.00,,,0.00,Wunderground v.1.15,2013-08-05 01:40:00,
2013-08-04 20:45:00,65.8,61.8,30.13,East,89,0.0,5.0,87,0.00,,,0.00,Wunderground v.1.15,2013-08-05 01:45:00,
2013-08-04 20:55:00,65.3,61.7,30.13,East,89,0.0,5.0,88,0.00,,,0.00,Wunderground v.1.15,2013-08-05 01:55:00,
2013-08-04 20:59:00,65.0,61.4,30.13,East,89,0.0,5.0,88,0.00,,,0.00,Wunderground v.1.15,2013-08-05 01:59:00,
2013-08-04 21:05:00,64.8,61.5,30.12,East,89,0.0,5.0,89,0.00,,,0.00,Wunderground v.1.15,2013-08-05 02:05:00,
2013-08-04 21:10:00,64.5,61.5,30.12,East,89,0.0,5.0,90,0.00,,,0.00,Wunderground v.1.15,2013-08-05 02:10:00,
2013-08-04 21:15:00,64.3,61.3,30.12,East,89,0.0,5.0,90,0.00,,,0.00,Wunderground v.1.15,2013-08-05 02:15:00,
2013-08-04 21:20:00,64.0,61.0,30.13,East,89,0.0,5.0,90,0.00,,,0.00,Wunderground v.1.15,2013-08-05 02:20:00,
2013-08-04 21:30:00,63.4,60.7,30.13,East,89,0.0,5.0,91,0.00,,,0.00,Wunderground v.1.15,2013-08-05 02:30:00,
2013-08-04 21:35:00,63.2,60.5,30.13,East,89,0.0,5.0,91,0.00,,,0.00,Wunderground v.1.15,2013-08-05 02:35:00,
2013-08-04 21:40:00,62.9,60.2,30.13,East,89,0.0,5.0,91,0.00,,,0.00,Wunderground v.1.15,2013-08-05 02:40:00,
2013-08-04 21:45:00,62.7,60.3,30.13,East,89,0.0,5.0,92,0.00,,,0.00,Wunderground v.1.15,2013-08-05 02:45:00,
2013-08-04 21:50:00,62.6,60.5,30.13,East,89,0.0,5.0,93,0.00,,,0.00,Wunderground v.1.15,2013-08-05 02:50:00,
2013-08-04 21:55:00,62.4,60.3,30.13,East,89,0.0,5.0,93,0.00,,,0.00,Wunderground v.1.15,2013-08-05 02:55:00,
2013-08-04 22:00:00,62.2,60.2,30.13,East,89,0.0,5.0,93,0.00,,,0.00,Wunderground v.1.15,2013-08-05 03:00:00,
2013-08-04 22:05:00,62.0,59.6,30.14,East,89,0.0,5.0,92,0.00,,,0.00,Wunderground v.1.15,2013-08-05 03:05:00,
2013-08-04 22:10:00,61.8,59.8,30.13,East,89,0.0,5.0,93,0.00,,,0.00,Wunderground v.1.15,2013-08-05 03:10:00,
2013-08-04 22:15:00,61.7,59.7,30.14,East,89,0.0,5.0,93,0.00,,,0.00,Wunderground v.1.15,2013-08-05 03:15:00,
2013-08-04 22:20:00,61.6,59.6,30.14,East,89,0.0,5.0,93,0.00,,,0.00,Wunderground v.1.15,2013-08-05 03:20:00,
2013-08-04 22:30:00,61.5,59.8,30.13,East,89,0.0,5.0,94,0.00,,,0.00,Wunderground v.1.15,2013-08-05 03:30:00,
2013-08-04 22:35:00,61.3,59.6,30.13,East,89,0.0,5.0,94,0.00,,,0.00,Wunderground v.1.15,2013-08-05 03:35:00,
2013-08-04 22:40:00,61.4,59.7,30.13,East,89,0.0,5.0,94,0.00,,,0.00,Wunderground v.1.15,2013-08-05 03:40:00,
2013-08-04 22:45:00,61.4,60.0,30.13,East,89,0.0,5.0,95,0.00,,,0.00,Wunderground v.1.15,2013-08-05 03:45:00,
2013-08-04 22:50:00,61.5,60.1,30.13,East,89,0.0,5.0,95,0.00,,,0.00,Wunderground v.1.15,2013-08-05 03:50:00,
2013-08-04 22:55:00,61.5,60.1,30.13,East,89,0.0,5.0,95,0.00,,,0.00,Wunderground v.1.15,2013-08-05 03:55:00,
2013-08-04 23:05:00,61.4,60.0,30.14,East,89,0.0,5.0,95,0.00,,,0.00,Wunderground v.1.15,2013-08-05 04:05:00,
2013-08-04 23:09:00,61.4,60.0,30.14,East,89,0.0,5.0,95,0.00,,,0.00,Wunderground v.1.15,2013-08-05 04:09:00,
2013-08-04 23:15:00,61.3,59.9,30.13,East,89,0.0,5.0,95,0.00,,,0.00,Wunderground v.1.15,2013-08-05 04:15:00,
2013-08-04 23:20:00,61.2,59.5,30.13,East,89,0.0,5.0,94,0.00,,,0.00,Wunderground v.1.15,2013-08-05 04:20:00,
2013-08-04 23:24:00,61.0,59.6,30.13,East,89,0.0,5.0,95,0.00,,,0.00,Wunderground v.1.15,2013-08-05 04:24:00,
2013-08-04 23:30:00,61.0,59.6,30.13,East,89,0.0,5.0,95,0.00,,,0.00,Wunderground v.1.15,2013-08-05 04:30:00,
2013-08-04 23:34:00,61.2,60.1,30.13,East,89,0.0,5.0,96,0.00,,,0.00,Wunderground v.1.15,2013-08-05 04:34:00,
2013-08-04 23:40:00,61.3,60.2,30.13,East,89,0.0,5.0,96,0.00,,,0.00,Wunderground v.1.15,2013-08-05 04:40:00,
2013-08-04 23:45:00,61.4,60.2,30.13,East,89,0.0,5.0,96,0.00,,,0.00,Wunderground v.1.15,2013-08-05 04:45:00,
2013-08-04 23:50:00,61.4,60.0,30.13,East,89,0.0,5.0,95,0.00,,,0.00,Wunderground v.1.15,2013-08-05 04:50:00,
2013-08-04 23:55:00,61.4,60.0,30.13,East,89,0.0,5.0,95,0.00,,,0.00,Wunderground v.1.15,2013-08-05 04:55:00,
2013-08-04 23:59:00,61.5,60.3,30.13,East,89,0.0,5.0,96,0.00,,,0.00,Wunderground v.1.15,2013-08-05 04:59:00,